Time;durP1;ratioP1;P1;durP2;ratioP2;P2;SDS_P1;SDS_P2;PMS_P1;PMS_P2;Temp;Humidity;BMP_temperature;BMP_pressure;BME280_temperature;BME280_humidity;BME280_pressure;Samples;Min_cycle;Max_cycle;Signal;HPM_P1;HPM_P2
2022/04/21 00:00:06;;;;;;;5.73;5.17;;;8.90;85.80;;;;;;5069656;28;20287;-70
2022/04/21 00:02:33;;;;;;;6.35;5.75;;;8.50;86.60;;;;;;5068804;28;20196;-70
2022/04/21 00:04:59;;;;;;;6.65;5.78;;;8.50;88.10;;;;;;5070982;28;20201;-70
2022/04/21 00:07:25;;;;;;;6.47;5.75;;;7.90;88.50;;;;;;5067099;28;20597;-70
2022/04/21 00:09:50;;;;;;;5.63;4.77;;;8.70;89.00;;;;;;5071018;28;20291;-70
2022/04/21 00:12:16;;;;;;;5.50;5.00;;;8.40;88.30;;;;;;5062137;28;20815;-70
2022/04/21 00:14:42;;;;;;;9.27;5.80;;;8.50;88.00;;;;;;5066488;28;20205;-70
2022/04/21 00:17:11;;;;;;;5.20;4.80;;;8.40;88.30;;;;;;5059904;28;20227;-71
2022/04/21 00:19:37;;;;;;;5.47;4.97;;;8.40;89.10;;;;;;5062612;28;20234;-70
2022/04/21 00:24:48;;;;;;;6.28;5.65;;;7.90;89.80;;;;;;5068531;28;20586;-70
2022/04/21 00:27:14;;;;;;;5.33;4.87;;;8.30;90.50;;;;;;5066553;28;20189;-70
2022/04/21 00:29:40;;;;;;;6.13;5.53;;;8.50;91.00;;;;;;5064948;28;20451;-70
2022/04/21 00:32:05;;;;;;;6.90;6.30;;;8.00;91.60;;;;;;5068655;28;20269;-70
2022/04/21 00:34:34;;;;;;;6.40;5.80;;;7.80;92.00;;;;;;5071007;28;20208;-70
2022/04/21 00:37:00;;;;;;;6.28;5.57;;;7.70;92.40;;;;;;5068972;28;20486;-70
2022/04/21 00:39:27;;;;;;;5.85;5.25;;;8.00;92.50;;;;;;5061744;28;20213;-70
2022/04/21 00:42:00;;;;;;;5.30;4.90;;;8.10;92.50;;;;;;5066322;28;20276;-70
2022/04/21 00:44:26;;;;;;;6.07;5.57;;;7.70;92.50;;;;;;5064488;28;20236;-71
2022/04/21 00:46:54;;;;;;;5.45;4.95;;;8.30;93.00;;;;;;5067488;28;20743;-71
2022/04/21 00:49:21;;;;;;;6.07;5.57;;;7.90;92.70;;;;;;5070285;28;20209;-70
2022/04/21 00:51:48;;;;;;;6.40;5.60;;;7.90;92.90;;;;;;5069556;28;20634;-70
2022/04/21 00:54:14;;;;;;;6.32;5.72;;;7.90;93.10;;;;;;5066883;28;20197;-70
2022/04/21 00:56:41;;;;;;;7.03;6.30;;;7.90;93.20;;;;;;5068885;28;20185;-70
2022/04/21 00:59:09;;;;;;;6.60;6.00;;;7.70;93.40;;;;;;5069800;28;20192;-70
2022/04/21 01:04:20;;;;;;;6.45;5.85;;;7.90;94.90;;;;;;5069856;28;20724;-70
2022/04/21 01:06:46;;;;;;;6.93;6.22;;;7.90;95.50;;;;;;5070512;28;20189;-70
2022/04/21 01:09:12;;;;;;;8.35;6.53;;;7.70;95.50;;;;;;5069058;28;20778;-70
2022/04/21 01:11:38;;;;;;;7.17;6.43;;;8.00;95.90;;;;;;5069144;28;20287;-70
2022/04/21 01:14:04;;;;;;;7.35;6.75;;;7.70;95.80;;;;;;5068625;28;20708;-70
2022/04/21 01:16:30;;;;;;;6.93;6.20;;;7.80;95.70;;;;;;5068221;28;20181;-70
2022/04/21 01:18:56;;;;;;;6.17;5.67;;;7.50;96.00;;;;;;5068065;28;20979;-70
2022/04/21 01:21:22;;;;;;;6.57;5.97;;;8.10;95.20;;;;;;5067843;28;20401;-70
2022/04/21 01:23:47;;;;;;;6.00;5.40;;;7.90;95.10;;;;;;5066600;28;20261;-70
2022/04/21 01:26:15;;;;;;;6.97;5.40;;;7.80;95.30;;;;;;5060106;28;20440;-70
2022/04/21 01:28:41;;;;;;;6.05;5.50;;;7.10;95.00;;;;;;5069586;28;20238;-70
2022/04/21 01:31:06;;;;;;;7.17;5.20;;;7.60;95.50;;;;;;5066914;28;20213;-70
2022/04/21 01:33:32;;;;;;;5.60;5.10;;;7.30;95.80;;;;;;5068719;28;20217;-70
2022/04/21 01:35:57;;;;;;;6.03;5.43;;;7.40;96.20;;;;;;5065616;28;20185;-70
2022/04/21 01:41:11;;;;;;;5.97;5.47;;;7.30;96.70;;;;;;5068030;28;20276;-70
2022/04/21 01:43:37;;;;;;;6.55;5.95;;;7.40;97.00;;;;;;5067888;28;20209;-70
2022/04/21 01:46:04;;;;;;;6.28;5.68;;;7.50;97.20;;;;;;5067500;28;20184;-70
2022/04/21 01:48:30;;;;;;;6.72;6.00;;;6.80;96.70;;;;;;5060169;28;20192;-70
2022/04/21 01:50:56;;;;;;;6.17;5.67;;;7.40;97.00;;;;;;5060009;28;20189;-70
2022/04/21 01:53:22;;;;;;;6.47;5.87;;;7.40;97.60;;;;;;5063883;28;20466;-70
2022/04/21 01:55:47;;;;;;;7.60;6.93;;;6.70;97.60;;;;;;5069216;28;20435;-70
2022/04/21 01:58:13;;;;;;;6.90;6.20;;;7.10;98.10;;;;;;5064663;28;20951;-70
2022/04/21 02:00:40;;;;;;;7.40;6.30;;;6.80;97.90;;;;;;5066888;28;20188;-70
2022/04/21 02:03:06;;;;;;;7.68;5.90;;;7.10;98.00;;;;;;5080975;28;20493;-70
2022/04/21 02:05:32;;;;;;;7.23;6.53;;;7.10;97.80;;;;;;5073730;28;20566;-70
2022/04/21 02:07:58;;;;;;;8.98;7.60;;;7.10;97.90;;;;;;5072272;28;20443;-70
2022/04/21 02:10:23;;;;;;;7.77;7.07;;;7.70;99.00;;;;;;5065234;28;20193;-70
2022/04/21 02:12:49;;;;;;;7.63;6.93;;;7.00;99.10;;;;;;5070559;28;20239;-70
2022/04/21 02:15:17;;;;;;;8.80;7.60;;;7.10;99.60;;;;;;5064499;28;20702;-70
2022/04/21 02:17:43;;;;;;;8.00;7.30;;;6.60;99.90;;;;;;5070462;28;20191;-70
2022/04/21 02:20:11;;;;;;;7.95;7.15;;;7.50;99.80;;;;;;5072391;28;20192;-70
2022/04/21 02:22:37;;;;;;;7.22;6.57;;;7.10;99.10;;;;;;5072737;28;20193;-70
2022/04/21 02:25:07;;;;;;;7.68;6.72;;;7.60;98.90;;;;;;5069149;28;20208;-70
2022/04/21 02:27:33;;;;;;;7.05;6.43;;;7.20;98.70;;;;;;5064213;28;20279;-70
2022/04/21 02:29:59;;;;;;;7.40;6.60;;;6.80;98.70;;;;;;5073218;28;20234;-70
2022/04/21 02:32:25;;;;;;;7.78;6.80;;;7.20;98.90;;;;;;5068064;28;20213;-70
2022/04/21 02:34:53;;;;;;;7.15;6.45;;;7.10;98.90;;;;;;5072057;28;20201;-70
2022/04/21 02:37:20;;;;;;;7.10;6.40;;;7.10;99.00;;;;;;5071199;28;20653;-69
2022/04/21 02:39:45;;;;;;;6.90;6.22;;;7.00;99.30;;;;;;5068746;28;20589;-70
2022/04/21 02:42:11;;;;;;;7.20;6.60;;;6.50;99.20;;;;;;5059934;28;20196;-70
2022/04/21 02:44:38;;;;;;;6.53;5.77;;;7.10;99.90;;;;;;5072610;28;20215;-70
2022/04/21 02:47:06;;;;;;;10.13;7.20;;;6.90;99.60;;;;;;5060651;28;20184;-70
2022/04/21 02:49:32;;;;;;;8.85;6.95;;;7.10;99.70;;;;;;5070681;28;20187;-70
2022/04/21 02:51:58;;;;;;;9.00;7.70;;;7.00;99.90;;;;;;5072401;28;20204;-70
2022/04/21 02:57:20;;;;;;;7.22;6.53;;;6.40;99.90;;;;;;5068709;28;20449;-70
2022/04/21 02:59:47;;;;;;;9.43;8.15;;;6.20;99.90;;;;;;5055181;28;20185;-70
2022/04/21 03:02:12;;;;;;;8.05;7.30;;;7.20;99.90;;;;;;5068907;28;20288;-70
2022/04/21 03:04:38;;;;;;;8.30;7.50;;;6.50;99.90;;;;;;5072322;28;20589;-70
2022/04/21 03:07:04;;;;;;;8.80;7.83;;;6.50;99.90;;;;;;5073184;28;20181;-70
2022/04/21 03:09:30;;;;;;;9.15;7.60;;;6.60;99.90;;;;;;5065028;28;20200;-70
2022/04/21 03:12:07;;;;;;;8.38;7.63;;;6.70;99.90;;;;;;5068337;28;20696;-70
2022/04/21 03:14:36;;;;;;;9.00;8.10;;;6.60;99.90;;;;;;5062352;28;20212;-70
2022/04/21 03:17:02;;;;;;;8.48;7.65;;;6.70;99.90;;;;;;5068242;28;20181;-70
2022/04/21 03:19:27;;;;;;;9.93;9.00;;;6.50;99.90;;;;;;5071497;28;20185;-70
2022/04/21 03:24:37;;;;;;;8.77;7.78;;;6.40;99.90;;;;;;5072320;28;20218;-70
2022/04/21 03:27:04;;;;;;;11.73;8.20;;;6.60;99.90;;;;;;5071767;28;20185;-70
2022/04/21 03:29:30;;;;;;;7.88;7.22;;;6.40;99.90;;;;;;5061000;28;20979;-70
2022/04/21 03:31:55;;;;;;;8.80;8.00;;;6.50;99.90;;;;;;5069207;28;20212;-70
2022/04/21 03:34:21;;;;;;;9.73;8.83;;;6.80;99.90;;;;;;5071396;28;20255;-70
2022/04/21 03:36:48;;;;;;;8.97;7.70;;;6.60;99.90;;;;;;5071998;28;20188;-70
2022/04/21 03:39:22;;;;;;;10.00;8.95;;;6.40;99.90;;;;;;5070459;28;20677;-70
2022/04/21 03:41:53;;;;;;;10.00;9.00;;;6.50;99.90;;;;;;5067722;28;20197;-70
2022/04/21 03:44:20;;;;;;;8.45;7.65;;;6.30;99.90;;;;;;5071688;28;20222;-70
2022/04/21 03:46:46;;;;;;;8.82;7.97;;;6.50;99.90;;;;;;5067582;28;20806;-70
2022/04/21 03:49:11;;;;;;;13.77;8.60;;;6.40;99.90;;;;;;5071957;28;20671;-70
2022/04/21 03:51:37;;;;;;;8.80;8.00;;;7.00;99.90;;;;;;5060850;28;20674;-70
2022/04/21 03:54:02;;;;;;;9.03;8.13;;;6.40;99.90;;;;;;5067915;28;20240;-70
2022/04/21 03:56:28;;;;;;;10.83;9.70;;;6.40;99.90;;;;;;5065842;28;20181;-70
2022/04/21 03:58:54;;;;;;;10.87;9.40;;;6.60;99.90;;;;;;5070843;28;20185;-70
2022/04/21 04:01:19;;;;;;;9.97;8.97;;;6.20;99.90;;;;;;5060893;28;20185;-71
2022/04/21 04:03:45;;;;;;;10.90;9.80;;;5.60;99.90;;;;;;5066811;28;20216;-71
2022/04/21 04:11:40;;;;;;;10.43;9.35;;;6.20;99.90;;;;;;5063259;28;20216;-70
2022/04/21 04:14:06;;;;;;;10.63;9.73;;;6.20;99.90;;;;;;5068960;28;20209;-70
2022/04/21 04:16:36;;;;;;;9.80;8.90;;;6.50;99.90;;;;;;5069533;28;20177;-70
2022/04/21 04:19:08;;;;;;;11.35;10.20;;;6.40;99.90;;;;;;5071242;28;20426;-70
2022/04/21 04:21:34;;;;;;;10.88;9.70;;;6.50;99.90;;;;;;5070587;28;20195;-70
2022/04/21 04:24:00;;;;;;;10.98;9.88;;;5.90;99.90;;;;;;5065834;28;20205;-70
2022/04/21 04:26:26;;;;;;;11.60;9.80;;;6.20;99.90;;;;;;5065206;28;20650;-70
2022/04/21 04:28:51;;;;;;;10.90;9.80;;;5.80;99.90;;;;;;5064039;28;20455;-70
2022/04/21 04:31:17;;;;;;;10.50;9.50;;;6.50;99.90;;;;;;5062225;28;20209;-70
2022/04/21 04:33:42;;;;;;;9.80;8.90;;;6.30;99.90;;;;;;5062353;28;20221;-70
2022/04/21 04:36:11;;;;;;;10.83;9.70;;;6.50;99.90;;;;;;5059715;28;20240;-70
2022/04/21 04:38:37;;;;;;;13.15;9.80;;;6.40;99.90;;;;;;5067024;28;20192;-71
2022/04/21 04:42:16;;;;;;;11.32;10.27;;;6.50;99.90;;;;;;5068046;28;20185;-70
2022/04/21 04:43:49;;;;;;;11.30;10.10;;;6.10;99.90;;;;;;5066809;28;20249;-70
2022/04/21 04:48:59;;;;;;;11.05;10.05;;;6.00;99.90;;;;;;5064674;28;20191;-70
2022/04/21 04:51:26;;;;;;;11.13;9.93;;;6.60;99.90;;;;;;5068793;28;20672;-70
2022/04/21 04:53:53;;;;;;;13.10;11.00;;;6.30;99.90;;;;;;5061129;28;20252;-70
2022/04/21 04:56:22;;;;;;;15.15;11.18;;;5.90;99.90;;;;;;5066718;28;20519;-71
2022/04/21 04:58:48;;;;;;;11.23;10.13;;;6.10;99.90;;;;;;5068501;28;20175;-71
2022/04/21 05:01:30;;;;;;;11.55;10.27;;;5.90;99.90;;;;;;5066646;28;21446;-64
2022/04/21 05:04:11;;;;;;;11.20;10.10;;;6.40;99.90;;;;;;5060607;28;20296;-67
2022/04/21 05:06:44;;;;;;;11.98;10.50;;;6.30;99.90;;;;;;5064259;28;20531;-71
2022/04/21 05:09:13;;;;;;;12.18;10.77;;;6.40;99.90;;;;;;5065289;28;20207;-71
2022/04/21 05:11:40;;;;;;;12.32;10.25;;;6.20;99.90;;;;;;5067412;28;20197;-70
2022/04/21 05:14:09;;;;;;;12.25;11.05;;;6.40;99.90;;;;;;5068887;28;20211;-71
2022/04/21 05:16:42;;;;;;;11.30;10.30;;;6.30;99.90;;;;;;5067079;28;20210;-71
2022/04/21 05:19:13;;;;;;;13.40;11.18;;;6.30;99.90;;;;;;5068574;28;20188;-70
2022/04/21 05:21:40;;;;;;;13.18;11.13;;;6.20;99.90;;;;;;5067273;28;20184;-70
2022/04/21 05:24:10;;;;;;;12.27;11.00;;;6.50;99.90;;;;;;5062069;28;20219;-70
2022/04/21 05:26:37;;;;;;;14.50;12.20;;;6.60;99.90;;;;;;5068673;28;20268;-71
2022/04/21 05:32:09;;;;;;;13.00;11.63;;;6.60;99.90;;;;;;5059036;28;20223;-71
2022/04/21 05:34:35;;;;;;;12.80;11.50;;;6.60;99.90;;;;;;5067243;28;20217;-70
2022/04/21 05:37:01;;;;;;;13.35;12.10;;;6.80;99.90;;;;;;5069019;28;20771;-70
2022/04/21 05:39:28;;;;;;;12.68;11.43;;;6.80;99.90;;;;;;5067886;28;20188;-71
2022/04/21 05:41:55;;;;;;;13.50;12.20;;;7.00;99.90;;;;;;5063285;28;20500;-70
2022/04/21 05:44:21;;;;;;;15.55;11.80;;;7.00;99.90;;;;;;5068846;28;20578;-70
2022/04/21 05:46:47;;;;;;;13.30;11.90;;;7.00;99.90;;;;;;5068876;28;20191;-70
2022/04/21 05:49:13;;;;;;;12.45;11.15;;;7.20;99.90;;;;;;5069018;28;20893;-70
2022/04/21 05:51:39;;;;;;;12.88;11.48;;;7.40;99.90;;;;;;5068917;28;20201;-68
2022/04/21 05:54:06;;;;;;;13.27;11.87;;;7.30;99.90;;;;;;5068001;28;20436;-68
2022/04/21 05:56:32;;;;;;;12.13;10.75;;;7.40;99.90;;;;;;5066826;28;20439;-67
2022/04/21 05:58:58;;;;;;;13.00;11.80;;;7.90;99.90;;;;;;5068436;28;20189;-68
2022/04/21 06:01:24;;;;;;;14.23;12.37;;;8.20;99.90;;;;;;5064274;28;20189;-68
2022/04/21 06:03:51;;;;;;;14.13;12.87;;;8.40;99.90;;;;;;5068421;28;20487;-68
2022/04/21 06:06:17;;;;;;;14.88;13.45;;;8.00;99.90;;;;;;5069157;28;20819;-68
2022/04/21 06:08:42;;;;;;;15.00;13.60;;;8.00;99.90;;;;;;5068576;28;20197;-68
2022/04/21 06:11:08;;;;;;;13.37;12.07;;;8.20;99.90;;;;;;5057543;28;20243;-68
2022/04/21 06:13:34;;;;;;;14.90;13.50;;;8.70;99.90;;;;;;5068698;28;20665;-67
2022/04/21 06:16:00;;;;;;;14.90;13.40;;;8.90;99.20;;;;;;5065823;28;20197;-68
2022/04/21 06:18:26;;;;;;;14.90;13.50;;;9.30;98.80;;;;;;5068760;28;20446;-69
2022/04/21 06:20:53;;;;;;;15.15;13.65;;;9.60;98.20;;;;;;5068268;28;20524;-68
2022/04/21 06:23:20;;;;;;;14.52;12.75;;;9.80;97.90;;;;;;5067238;28;20274;-68
2022/04/21 06:25:46;;;;;;;13.07;11.85;;;10.40;95.70;;;;;;5060177;28;20184;-68
2022/04/21 06:28:12;;;;;;;13.70;12.30;;;11.00;94.90;;;;;;5067774;28;20181;-68
2022/04/21 06:30:39;;;;;;;14.82;13.40;;;10.90;93.90;;;;;;5068626;28;20416;-69
2022/04/21 06:33:05;;;;;;;19.85;13.30;;;11.40;92.80;;;;;;5060760;28;20219;-69
2022/04/21 06:35:31;;;;;;;15.32;13.77;;;11.40;92.20;;;;;;5062188;28;20549;-69
2022/04/21 06:37:57;;;;;;;14.30;12.80;;;11.50;91.90;;;;;;5068550;28;20184;-69
2022/04/21 06:40:23;;;;;;;14.90;13.15;;;11.20;91.70;;;;;;5069510;28;20191;-70
2022/04/21 06:42:50;;;;;;;14.95;13.52;;;11.80;91.80;;;;;;5060410;28;20605;-70
2022/04/21 06:48:03;;;;;;;14.57;13.07;;;13.20;87.50;;;;;;5063222;28;20254;-70
2022/04/21 06:50:33;;;;;;;12.98;11.77;;;14.40;83.00;;;;;;5072822;28;20246;-70
2022/04/21 06:53:00;;;;;;;14.63;13.10;;;15.10;78.60;;;;;;5071130;28;20315;-70
2022/04/21 06:55:26;;;;;;;12.50;11.30;;;15.60;75.70;;;;;;5066171;28;20196;-70
2022/04/21 06:57:51;;;;;;;12.77;11.67;;;16.50;72.50;;;;;;5072296;28;20188;-70
2022/04/21 07:00:17;;;;;;;12.70;11.53;;;17.80;67.80;;;;;;5067511;28;20189;-70
2022/04/21 07:02:43;;;;;;;13.60;12.20;;;18.00;64.10;;;;;;5066201;28;20645;-70
2022/04/21 07:05:11;;;;;;;12.23;11.00;;;17.90;62.60;;;;;;5071206;28;20222;-69
2022/04/21 07:07:39;;;;;;;11.77;10.57;;;19.10;61.00;;;;;;5072684;28;20246;-70
2022/04/21 07:10:05;;;;;;;13.00;11.93;;;21.00;57.50;;;;;;5070378;28;20195;-71
2022/04/21 07:12:31;;;;;;;11.67;10.50;;;21.70;53.70;;;;;;5071012;28;20346;-70
2022/04/21 07:15:01;;;;;;;11.83;10.83;;;22.60;52.70;;;;;;5071961;28;20455;-69
2022/04/21 07:17:27;;;;;;;12.00;11.00;;;23.30;49.80;;;;;;5070379;28;20447;-69
2022/04/21 07:19:53;;;;;;;11.93;10.93;;;23.90;48.00;;;;;;5071944;28;20423;-69
2022/04/21 07:22:25;;;;;;;12.83;11.63;;;24.70;46.50;;;;;;5071744;28;20427;-69
2022/04/21 07:24:55;;;;;;;12.00;10.90;;;24.10;46.40;;;;;;5066137;28;20207;-69
2022/04/21 07:27:21;;;;;;;14.03;12.80;;;25.00;45.00;;;;;;5065241;28;20499;-68
2022/04/21 07:29:47;;;;;;;12.53;11.43;;;26.10;43.10;;;;;;5071498;28;20948;-69
2022/04/21 07:32:13;;;;;;;13.27;12.13;;;25.90;42.10;;;;;;5060195;28;20482;-68
2022/04/21 07:34:39;;;;;;;11.80;10.87;;;25.40;41.50;;;;;;5071803;28;20458;-68
2022/04/21 07:37:07;;;;;;;11.87;10.93;;;25.40;42.60;;;;;;5071780;28;20187;-68
2022/04/21 07:39:32;;;;;;;12.63;11.63;;;24.50;42.30;;;;;;5071258;28;20661;-69
2022/04/21 07:41:58;;;;;;;11.77;10.87;;;25.40;42.10;;;;;;5068581;28;20857;-69
2022/04/21 07:44:25;;;;;;;12.30;11.20;;;25.50;41.80;;;;;;5070625;28;20212;-68
2022/04/21 07:46:51;;;;;;;12.30;11.40;;;25.40;42.20;;;;;;5061824;28;20447;-68
2022/04/21 07:54:44;;;;;;;12.23;11.33;;;25.20;42.10;;;;;;5055434;28;20505;-69
2022/04/21 07:57:10;;;;;;;13.50;11.90;;;24.50;42.50;;;;;;5068784;28;20468;-69
2022/04/21 07:59:36;;;;;;;12.03;10.97;;;24.00;42.50;;;;;;5071563;28;20214;-69
2022/04/21 08:02:03;;;;;;;11.87;10.97;;;25.00;42.10;;;;;;5068191;28;20443;-69
2022/04/21 08:04:30;;;;;;;12.60;11.50;;;25.60;41.00;;;;;;5071531;28;20273;-69
2022/04/21 08:06:57;;;;;;;14.67;12.20;;;25.60;40.60;;;;;;5069680;28;20962;-69
2022/04/21 08:09:23;;;;;;;12.60;11.60;;;26.30;40.10;;;;;;5065544;28;20460;-68
2022/04/21 08:11:48;;;;;;;11.03;10.03;;;25.40;40.90;;;;;;5070272;28;20564;-68
2022/04/21 08:14:14;;;;;;;10.87;10.07;;;26.10;40.30;;;;;;5070907;28;20201;-68
2022/04/21 08:16:41;;;;;;;11.40;10.50;;;24.90;40.50;;;;;;5069783;28;20196;-68
2022/04/21 08:19:06;;;;;;;11.60;10.70;;;25.10;41.00;;;;;;5070294;28;20575;-68
2022/04/21 08:21:32;;;;;;;10.33;9.53;;;24.20;41.50;;;;;;5070443;28;20529;-68
2022/04/21 08:32:33;;;;;;;12.07;11.10;;;24.80;42.20;;;;;;5069926;28;20216;-68
2022/04/21 08:34:55;;;;;;;9.97;9.07;;;26.40;39.80;;;;;;5068888;28;20463;-68
2022/04/21 08:37:21;;;;;;;10.07;9.27;;;27.30;38.20;;;;;;5070013;28;20429;-68
2022/04/21 08:39:47;;;;;;;10.67;9.87;;;27.40;37.40;;;;;;5070246;28;20705;-68
2022/04/21 08:42:15;;;;;;;10.00;9.30;;;27.00;37.40;;;;;;5067178;28;20456;-68
2022/04/21 08:44:44;;;;;;;10.90;10.10;;;27.70;38.00;;;;;;5069337;28;20963;-68
2022/04/21 08:47:12;;;;;;;10.47;9.67;;;27.40;37.20;;;;;;5058672;28;20449;-72
2022/04/21 08:49:39;;;;;;;10.73;9.83;;;27.10;36.40;;;;;;5070166;28;20438;-68
2022/04/21 08:52:06;;;;;;;11.17;10.17;;;26.10;37.70;;;;;;5068930;28;20467;-68
2022/04/21 08:54:33;;;;;;;10.90;10.10;;;26.20;38.60;;;;;;5067638;28;20450;-68
2022/04/21 08:56:59;;;;;;;11.50;10.63;;;26.20;38.20;;;;;;5059481;28;20438;-69
2022/04/21 08:59:25;;;;;;;11.90;11.00;;;25.30;39.10;;;;;;5070092;28;21011;-68
2022/04/21 09:01:51;;;;;;;11.87;10.90;;;25.90;39.30;;;;;;5069892;28;20463;-69
2022/04/21 09:04:16;;;;;;;10.30;9.50;;;26.60;38.60;;;;;;5069406;28;20209;-69
2022/04/21 09:06:42;;;;;;;11.97;10.97;;;26.70;38.00;;;;;;5069184;28;20525;-69
2022/04/21 09:09:21;;;;;;;10.90;10.10;;;26.00;38.10;;;;;;5069787;28;20201;-69
2022/04/21 09:11:51;;;;;;;9.97;9.27;;;26.70;38.50;;;;;;5060376;28;20751;-69
2022/04/21 09:14:17;;;;;;;10.00;9.20;;;26.70;37.20;;;;;;5069239;28;20886;-69
2022/04/21 09:16:43;;;;;;;10.17;9.37;;;26.90;36.60;;;;;;5061222;28;20441;-69
2022/04/21 09:19:09;;;;;;;10.40;9.60;;;27.60;36.30;;;;;;5069581;28;20444;-69
2022/04/21 09:21:37;;;;;;;10.70;9.80;;;27.30;35.70;;;;;;5069293;28;20439;-68
2022/04/21 09:24:22;;;;;;;10.77;9.90;;;26.70;36.20;;;;;;5068274;28;20291;-69
2022/04/21 09:26:48;;;;;;;10.20;9.33;;;26.20;37.00;;;;;;5056016;28;20443;-69
2022/04/21 09:29:25;;;;;;;11.13;10.20;;;25.80;38.10;;;;;;5059579;28;20519;-69
2022/04/21 09:32:04;;;;;;;11.00;10.10;;;23.90;38.90;;;;;;5067131;28;20462;-69
2022/04/21 09:34:30;;;;;;;10.13;9.30;;;24.40;40.10;;;;;;5068868;28;20461;-69
2022/04/21 09:36:59;;;;;;;11.00;10.10;;;24.90;39.20;;;;;;5070027;28;20435;-69
2022/04/21 09:39:27;;;;;;;10.17;9.37;;;24.20;39.90;;;;;;5069659;28;20431;-69
2022/04/21 09:41:54;;;;;;;12.37;11.17;;;23.50;40.00;;;;;;5063877;28;20528;-69
2022/04/21 09:47:20;;;;;;;10.97;10.07;;;24.60;40.30;;;;;;5066191;28;20443;-70
2022/04/21 09:49:46;;;;;;;11.07;9.93;;;24.00;40.20;;;;;;5069279;28;20451;-68
2022/04/21 09:52:12;;;;;;;10.70;9.80;;;24.30;40.50;;;;;;5068721;28;20842;-68
2022/04/21 09:54:40;;;;;;;9.63;8.67;;;24.00;40.30;;;;;;5066873;28;20460;-68
2022/04/21 09:57:07;;;;;;;11.27;9.87;;;23.70;40.10;;;;;;5068339;28;20447;-68
2022/04/21 09:59:36;;;;;;;10.43;9.47;;;24.70;40.30;;;;;;5069460;28;20448;-68
2022/04/21 10:02:03;;;;;;;10.53;9.63;;;25.50;39.20;;;;;;5066103;28;20445;-68
2022/04/21 10:04:30;;;;;;;9.77;8.97;;;24.00;39.30;;;;;;5068542;28;20467;-68
2022/04/21 10:06:57;;;;;;;9.30;8.53;;;24.00;41.00;;;;;;5068247;28;20432;-68
2022/04/21 10:09:23;;;;;;;9.27;8.50;;;23.90;40.50;;;;;;5069725;28;21133;-68
2022/04/21 10:11:52;;;;;;;9.10;8.40;;;23.70;40.30;;;;;;5066054;28;20504;-68
2022/04/21 10:14:18;;;;;;;9.47;8.67;;;23.50;40.70;;;;;;5067842;28;20611;-68
2022/04/21 10:16:44;;;;;;;9.33;8.53;;;23.20;41.30;;;;;;5060866;28;20448;-68
2022/04/21 10:19:12;;;;;;;8.60;8.00;;;22.60;42.20;;;;;;5063838;28;20445;-68
2022/04/21 10:21:48;;;;;;;9.87;9.10;;;22.60;42.30;;;;;;5071040;28;20479;-68
2022/04/21 10:24:21;;;;;;;9.00;8.23;;;22.30;42.20;;;;;;5072538;28;20817;-68
2022/04/21 10:26:47;;;;;;;8.60;7.90;;;22.50;42.90;;;;;;5070298;28;20431;-68
2022/04/21 10:29:17;;;;;;;9.07;8.27;;;22.10;42.70;;;;;;5070676;28;20526;-68
2022/04/21 10:31:58;;;;;;;8.50;7.90;;;22.00;43.20;;;;;;5069816;28;20217;-68
2022/04/21 10:34:31;;;;;;;9.18;8.48;;;21.70;43.50;;;;;;5071697;28;20540;-69
2022/04/21 10:37:20;;;;;;;9.80;8.80;;;20.80;44.20;;;;;;5072964;28;20267;-68
2022/04/21 10:40:06;;;;;;;9.70;8.90;;;20.00;46.60;;;;;;5067546;28;20193;-68
2022/04/21 10:42:58;;;;;;;9.18;8.45;;;19.80;47.40;;;;;;5067930;28;20371;-68
2022/04/21 10:45:24;;;;;;;9.57;8.77;;;19.50;47.70;;;;;;5072115;28;20238;-69
2022/04/21 10:48:08;;;;;;;27.65;24.10;;;19.00;48.80;;;;;;5070969;28;20272;-68
2022/04/21 10:50:39;;;;;;;8.20;7.53;;;19.30;48.60;;;;;;5054558;28;20185;-68
2022/04/21 10:58:36;;;;;;;7.30;6.80;;;20.90;47.00;;;;;;5072618;28;20663;-67
2022/04/21 11:01:22;;;;;;;7.60;7.00;;;21.90;45.80;;;;;;5070090;28;21779;-67
2022/04/21 11:04:08;;;;;;;7.47;6.73;;;22.50;44.80;;;;;;5068797;28;20259;-67
2022/04/21 11:06:42;;;;;;;7.97;7.23;;;22.90;43.70;;;;;;5071492;28;20484;-67
2022/04/21 11:09:08;;;;;;;7.60;7.00;;;22.50;43.60;;;;;;5072156;28;20446;-67
2022/04/21 11:11:45;;;;;;;7.47;6.87;;;22.00;44.30;;;;;;5070918;28;20477;-70
2022/04/21 11:14:11;;;;;;;7.40;6.80;;;21.70;45.10;;;;;;5072096;28;20815;-69
2022/04/21 11:16:47;;;;;;;6.70;6.20;;;21.30;45.80;;;;;;5069244;28;20454;-70
2022/04/21 11:19:31;;;;;;;6.85;6.35;;;20.90;46.50;;;;;;5071564;28;20347;-70
2022/04/21 11:22:18;;;;;;;7.03;6.53;;;19.60;46.80;;;;;;5071943;28;20191;-71
2022/04/21 11:25:03;;;;;;;7.50;6.25;;;19.70;48.30;;;;;;5054777;28;20677;-71
2022/04/21 11:27:31;;;;;;;6.65;6.15;;;19.70;49.20;;;;;;5068959;28;20185;-71
2022/04/21 11:30:15;;;;;;;6.55;6.05;;;19.90;48.90;;;;;;5070930;28;20692;-70
2022/04/21 11:32:51;;;;;;;7.03;6.32;;;20.30;48.50;;;;;;5066727;28;20213;-71
2022/04/21 11:35:18;;;;;;;6.75;6.15;;;20.70;47.60;;;;;;5072110;28;20176;-71
2022/04/21 11:37:59;;;;;;;5.80;5.40;;;21.00;47.30;;;;;;5071373;28;20184;-70
2022/04/21 11:40:29;;;;;;;5.15;4.75;;;21.00;47.80;;;;;;5068147;28;20265;-70
2022/04/21 11:42:56;;;;;;;5.13;4.73;;;22.30;47.10;;;;;;5063363;28;20212;-70
2022/04/21 11:45:35;;;;;;;5.47;4.97;;;21.40;46.80;;;;;;5070324;28;20802;-71
2022/04/21 11:48:01;;;;;;;5.72;5.20;;;21.10;47.00;;;;;;5067681;28;20192;-70
2022/04/21 11:50:29;;;;;;;5.20;4.80;;;20.40;47.20;;;;;;5071036;28;20184;-70
2022/04/21 11:52:56;;;;;;;6.05;5.55;;;19.80;49.40;;;;;;5071387;28;20689;-70
2022/04/21 11:55:31;;;;;;;4.90;4.50;;;20.10;49.10;;;;;;5066021;28;20185;-70
2022/04/21 11:57:57;;;;;;;4.50;4.05;;;19.80;49.20;;;;;;5065020;28;20180;-70
2022/04/21 12:08:46;;;;;;;7.30;4.15;;;21.30;47.20;;;;;;5071125;28;20195;-70
2022/04/21 12:11:18;;;;;;;3.63;3.40;;;21.20;47.00;;;;;;5065783;28;20239;-70
2022/04/21 12:13:44;;;;;;;3.45;3.15;;;21.00;47.10;;;;;;5071040;28;20201;-71
2022/04/21 12:16:41;;;;;;;3.78;3.55;;;20.60;47.40;;;;;;5067336;28;20182;-70
2022/04/21 12:19:17;;;;;;;3.20;2.47;;;20.40;48.50;;;;;;5065848;28;20184;-70
2022/04/21 12:21:44;;;;;;;3.30;3.00;;;20.20;48.70;;;;;;5071121;28;20274;-70
2022/04/21 12:24:17;;;;;;;3.70;2.97;;;19.80;49.40;;;;;;5069182;28;20208;-70
2022/04/21 12:26:51;;;;;;;3.00;2.80;;;19.90;48.60;;;;;;5064651;28;20176;-70
2022/04/21 12:29:17;;;;;;;2.75;2.45;;;20.10;48.50;;;;;;5069561;28;20269;-70
2022/04/21 12:31:53;;;;;;;2.88;2.17;;;20.10;48.30;;;;;;5064324;28;20216;-70
2022/04/21 12:34:24;;;;;;;1.85;1.75;;;20.30;48.50;;;;;;5057517;28;20620;-70
2022/04/21 12:36:51;;;;;;;1.60;1.50;;;20.30;47.00;;;;;;5069964;28;20180;-70
2022/04/21 12:39:18;;;;;;;1.70;1.60;;;19.90;46.60;;;;;;5071097;28;20255;-70
2022/04/21 12:41:44;;;;;;;3.30;2.95;;;20.00;46.60;;;;;;5067451;28;20284;-70
2022/04/21 12:44:10;;;;;;;1.60;1.50;;;20.10;47.10;;;;;;5070544;28;20343;-70
2022/04/21 12:46:36;;;;;;;1.70;1.60;;;20.10;46.50;;;;;;5064727;28;20452;-70
2022/04/21 12:49:02;;;;;;;1.90;1.80;;;20.00;46.60;;;;;;5070523;28;20614;-71
2022/04/21 12:51:28;;;;;;;2.15;1.95;;;20.30;46.70;;;;;;5070323;28;20177;-71
2022/04/21 12:53:58;;;;;;;1.60;1.50;;;20.20;46.20;;;;;;5066139;28;20205;-70
2022/04/21 12:56:35;;;;;;;1.90;1.80;;;20.60;46.10;;;;;;5060134;28;20635;-71
2022/04/21 12:59:01;;;;;;;1.70;1.60;;;20.70;46.00;;;;;;5066957;28;20169;-70
2022/04/21 13:01:27;;;;;;;1.80;1.70;;;20.20;45.70;;;;;;5067751;28;20212;-68
2022/04/21 13:03:53;;;;;;;1.77;1.67;;;19.80;46.50;;;;;;5069790;28;20228;-69
2022/04/21 13:06:29;;;;;;;1.87;1.77;;;19.50;46.90;;;;;;5069898;28;21014;-68
2022/04/21 13:08:56;;;;;;;2.58;2.38;;;19.90;47.30;;;;;;5061525;28;20193;-69
2022/04/21 13:11:22;;;;;;;2.35;2.20;;;20.60;47.90;;;;;;5068817;28;20612;-69
2022/04/21 13:13:47;;;;;;;3.37;2.13;;;20.20;47.60;;;;;;5069528;28;20284;-69
2022/04/21 13:16:13;;;;;;;2.00;1.90;;;19.80;47.50;;;;;;5050369;28;20975;-70
2022/04/21 13:18:39;;;;;;;2.60;2.40;;;20.20;48.30;;;;;;5070371;28;20210;-70
2022/04/21 13:23:48;;;;;;;2.40;2.20;;;19.70;48.20;;;;;;5069601;28;20699;-69
2022/04/21 13:26:14;;;;;;;2.40;2.20;;;19.60;48.00;;;;;;5067871;28;20275;-69
2022/04/21 13:28:39;;;;;;;3.90;2.50;;;19.60;48.10;;;;;;5068405;28;20650;-69
2022/04/21 13:33:49;;;;;;;3.15;2.80;;;19.90;50.10;;;;;;5069327;28;20208;-70
2022/04/21 13:36:15;;;;;;;3.40;3.10;;;19.40;50.00;;;;;;5069084;28;20176;-70
2022/04/21 13:38:40;;;;;;;2.93;2.73;;;19.40;50.20;;;;;;5069462;28;20245;-69
2022/04/21 13:41:06;;;;;;;2.90;2.70;;;19.40;50.10;;;;;;5067666;28;20519;-69
2022/04/21 13:43:31;;;;;;;3.13;2.93;;;19.40;50.80;;;;;;5069323;28;20421;-69
2022/04/21 13:45:57;;;;;;;3.40;3.10;;;19.40;50.10;;;;;;5067088;28;20185;-68
2022/04/21 13:48:24;;;;;;;3.20;3.00;;;19.40;50.80;;;;;;5066139;28;20200;-71
2022/04/21 13:50:50;;;;;;;2.35;2.20;;;19.50;49.90;;;;;;5069210;28;20196;-69